sensor_id;sensor_type;location;lat;lon;timestamp;pressure;altitude;pressure_sealevel;temperature;humidity
15674;BME280;7937;48.090;16.212;2023-12-20T00:02:45;97592.91;;;-0.71;100.00
15674;BME280;7937;48.090;16.212;2023-12-20T00:05:49;97581.88;;;-0.82;100.00
15674;BME280;7937;48.090;16.212;2023-12-20T00:08:51;97582.19;;;-0.85;100.00
15674;BME280;7937;48.090;16.212;2023-12-20T00:11:53;97579.03;;;-0.72;100.00
15674;BME280;7937;48.090;16.212;2023-12-20T00:14:56;97579.53;;;-0.76;100.00
15674;BME280;7937;48.090;16.212;2023-12-20T00:17:58;97586.09;;;-0.81;100.00
15674;BME280;7937;48.090;16.212;2023-12-20T00:21:01;97555.59;;;-0.88;100.00
15674;BME280;7937;48.090;16.212;2023-12-20T00:24:04;97572.03;;;-0.80;100.00
15674;BME280;7937;48.090;16.212;2023-12-20T00:27:06;97570.00;;;-0.69;100.00
15674;BME280;7937;48.090;16.212;2023-12-20T00:30:10;97568.88;;;-0.67;100.00
15674;BME280;7937;48.090;16.212;2023-12-20T00:33:13;97559.44;;;-0.76;100.00
15674;BME280;7937;48.090;16.212;2023-12-20T00:36:16;97566.34;;;-0.83;100.00
15674;BME280;7937;48.090;16.212;2023-12-20T00:39:19;97552.00;;;-0.87;100.00
15674;BME280;7937;48.090;16.212;2023-12-20T00:42:21;97511.50;;;-1.22;100.00
15674;BME280;7937;48.090;16.212;2023-12-20T00:45:24;97551.25;;;-1.04;100.00
15674;BME280;7937;48.090;16.212;2023-12-20T00:48:26;97511.91;;;-1.11;100.00
15674;BME280;7937;48.090;16.212;2023-12-20T00:51:29;97518.03;;;-0.95;100.00
15674;BME280;7937;48.090;16.212;2023-12-20T00:54:31;97488.50;;;-1.04;100.00
15674;BME280;7937;48.090;16.212;2023-12-20T00:57:34;97505.97;;;-0.73;100.00
15674;BME280;7937;48.090;16.212;2023-12-20T01:00:37;97519.16;;;-0.67;100.00
15674;BME280;7937;48.090;16.212;2023-12-20T01:03:44;97534.34;;;-0.62;100.00
15674;BME280;7937;48.090;16.212;2023-12-20T01:06:47;97540.66;;;-0.34;100.00
15674;BME280;7937;48.090;16.212;2023-12-20T01:09:49;97534.91;;;-0.29;100.00
15674;BME280;7937;48.090;16.212;2023-12-20T01:12:52;97541.22;;;-0.23;100.00
15674;BME280;7937;48.090;16.212;2023-12-20T01:15:54;97538.19;;;-0.12;100.00
15674;BME280;7937;48.090;16.212;2023-12-20T01:18:57;97526.63;;;-0.18;100.00
15674;BME280;7937;48.090;16.212;2023-12-20T01:22:00;97512.53;;;-0.17;100.00
15674;BME280;7937;48.090;16.212;2023-12-20T01:25:03;97544.63;;;0.00;100.00
15674;BME280;7937;48.090;16.212;2023-12-20T01:28:05;97549.47;;;-0.12;100.00
15674;BME280;7937;48.090;16.212;2023-12-20T01:31:08;97542.41;;;-0.11;100.00
15674;BME280;7937;48.090;16.212;2023-12-20T01:34:12;97541.19;;;-0.01;100.00
15674;BME280;7937;48.090;16.212;2023-12-20T01:37:14;97524.50;;;0.15;100.00
15674;BME280;7937;48.090;16.212;2023-12-20T01:40:17;97519.34;;;0.51;100.00
15674;BME280;7937;48.090;16.212;2023-12-20T01:43:19;97508.41;;;1.35;97.44
15674;BME280;7937;48.090;16.212;2023-12-20T01:46:22;97502.53;;;2.11;91.15
15674;BME280;7937;48.090;16.212;2023-12-20T01:49:25;97506.81;;;2.53;88.39
15674;BME280;7937;48.090;16.212;2023-12-20T01:52:29;97494.56;;;3.54;70.93
15674;BME280;7937;48.090;16.212;2023-12-20T01:55:33;97487.16;;;5.39;62.04
15674;BME280;7937;48.090;16.212;2023-12-20T01:58:44;97444.75;;;6.45;55.05
15674;BME280;7937;48.090;16.212;2023-12-20T02:01:47;97480.91;;;7.18;51.39
15674;BME280;7937;48.090;16.212;2023-12-20T02:04:50;97476.88;;;6.67;56.40
15674;BME280;7937;48.090;16.212;2023-12-20T02:07:53;97479.31;;;5.82;60.45
15674;BME280;7937;48.090;16.212;2023-12-20T02:10:57;97474.13;;;5.12;63.57
15674;BME280;7937;48.090;16.212;2023-12-20T02:13:59;97474.69;;;4.76;67.53
15674;BME280;7937;48.090;16.212;2023-12-20T02:17:02;97463.66;;;4.41;69.15
15674;BME280;7937;48.090;16.212;2023-12-20T02:20:06;97452.19;;;4.02;72.13
15674;BME280;7937;48.090;16.212;2023-12-20T02:23:09;97455.47;;;3.91;71.99
15674;BME280;7937;48.090;16.212;2023-12-20T02:26:12;97458.28;;;3.83;71.08
15674;BME280;7937;48.090;16.212;2023-12-20T02:29:16;97440.44;;;3.92;70.48
15674;BME280;7937;48.090;16.212;2023-12-20T02:32:19;97429.81;;;4.31;64.81
15674;BME280;7937;48.090;16.212;2023-12-20T02:35:22;97440.91;;;4.47;66.31
15674;BME280;7937;48.090;16.212;2023-12-20T02:38:24;97407.53;;;4.21;67.12
15674;BME280;7937;48.090;16.212;2023-12-20T02:41:26;97429.03;;;4.18;66.99
15674;BME280;7937;48.090;16.212;2023-12-20T02:44:29;97423.81;;;3.98;68.80
15674;BME280;7937;48.090;16.212;2023-12-20T02:47:31;97410.88;;;3.90;68.63
15674;BME280;7937;48.090;16.212;2023-12-20T02:50:34;97408.03;;;3.78;69.34
15674;BME280;7937;48.090;16.212;2023-12-20T02:53:36;97405.00;;;3.81;68.93
15674;BME280;7937;48.090;16.212;2023-12-20T02:56:39;97406.41;;;3.90;65.19
15674;BME280;7937;48.090;16.212;2023-12-20T02:59:41;97384.31;;;4.43;62.49
15674;BME280;7937;48.090;16.212;2023-12-20T03:02:44;97403.59;;;4.50;62.54
15674;BME280;7937;48.090;16.212;2023-12-20T03:05:46;97399.84;;;4.19;65.91
15674;BME280;7937;48.090;16.212;2023-12-20T03:08:49;97393.00;;;3.98;65.68
15674;BME280;7937;48.090;16.212;2023-12-20T03:11:51;97402.97;;;3.83;67.84
15674;BME280;7937;48.090;16.212;2023-12-20T03:14:53;97372.59;;;3.54;68.97
15674;BME280;7937;48.090;16.212;2023-12-20T03:17:56;97394.28;;;3.62;68.20
15674;BME280;7937;48.090;16.212;2023-12-20T03:20:59;97398.13;;;3.67;68.36
15674;BME280;7937;48.090;16.212;2023-12-20T03:24:01;97344.47;;;3.34;67.64
15674;BME280;7937;48.090;16.212;2023-12-20T03:27:04;97388.56;;;3.92;64.95
15674;BME280;7937;48.090;16.212;2023-12-20T03:30:06;97404.56;;;3.84;67.46
15674;BME280;7937;48.090;16.212;2023-12-20T03:33:09;97359.25;;;3.55;67.22
15674;BME280;7937;48.090;16.212;2023-12-20T03:36:12;97378.19;;;4.55;61.37
15674;BME280;7937;48.090;16.212;2023-12-20T03:39:14;97405.16;;;5.27;56.75
15674;BME280;7937;48.090;16.212;2023-12-20T03:42:17;97392.47;;;5.61;54.71
15674;BME280;7937;48.090;16.212;2023-12-20T03:45:19;97400.25;;;5.56;57.34
15674;BME280;7937;48.090;16.212;2023-12-20T03:48:21;97413.84;;;5.59;56.77
15674;BME280;7937;48.090;16.212;2023-12-20T03:51:24;97415.69;;;5.59;56.06
15674;BME280;7937;48.090;16.212;2023-12-20T03:54:26;97402.66;;;5.82;56.49
15674;BME280;7937;48.090;16.212;2023-12-20T03:57:29;97401.66;;;6.75;51.42
15674;BME280;7937;48.090;16.212;2023-12-20T04:00:31;97407.41;;;7.14;50.22
15674;BME280;7937;48.090;16.212;2023-12-20T04:03:34;97399.59;;;6.89;52.24
15674;BME280;7937;48.090;16.212;2023-12-20T04:06:37;97409.97;;;6.60;51.25
15674;BME280;7937;48.090;16.212;2023-12-20T04:09:41;97402.03;;;7.20;50.29
15674;BME280;7937;48.090;16.212;2023-12-20T04:12:44;97416.63;;;6.81;53.04
15674;BME280;7937;48.090;16.212;2023-12-20T04:15:46;97396.28;;;7.47;48.40
15674;BME280;7937;48.090;16.212;2023-12-20T04:18:50;97393.53;;;7.42;49.20
15674;BME280;7937;48.090;16.212;2023-12-20T04:21:52;97376.81;;;7.30;49.45
15674;BME280;7937;48.090;16.212;2023-12-20T04:24:55;97396.03;;;7.25;49.73
15674;BME280;7937;48.090;16.212;2023-12-20T04:27:57;97392.25;;;7.33;50.26
15674;BME280;7937;48.090;16.212;2023-12-20T04:30:59;97382.13;;;7.30;50.64
15674;BME280;7937;48.090;16.212;2023-12-20T04:34:02;97377.75;;;7.35;49.88
15674;BME280;7937;48.090;16.212;2023-12-20T04:37:04;97348.56;;;7.12;50.68
15674;BME280;7937;48.090;16.212;2023-12-20T04:40:07;97383.25;;;7.22;51.99
15674;BME280;7937;48.090;16.212;2023-12-20T04:43:10;97395.38;;;7.30;51.00
15674;BME280;7937;48.090;16.212;2023-12-20T04:46:13;97389.09;;;7.24;52.18
15674;BME280;7937;48.090;16.212;2023-12-20T04:49:16;97389.22;;;7.17;54.14
15674;BME280;7937;48.090;16.212;2023-12-20T04:52:19;97392.19;;;7.09;54.70
15674;BME280;7937;48.090;16.212;2023-12-20T04:55:21;97392.78;;;7.23;55.76
15674;BME280;7937;48.090;16.212;2023-12-20T04:58:24;97398.78;;;7.18;57.96
15674;BME280;7937;48.090;16.212;2023-12-20T05:01:27;97400.47;;;7.01;60.25
15674;BME280;7937;48.090;16.212;2023-12-20T05:04:31;97414.41;;;6.78;63.56
15674;BME280;7937;48.090;16.212;2023-12-20T05:07:34;97409.38;;;6.58;65.33
15674;BME280;7937;48.090;16.212;2023-12-20T05:10:36;97410.41;;;6.39;66.12
15674;BME280;7937;48.090;16.212;2023-12-20T05:13:39;97420.50;;;6.12;68.42
15674;BME280;7937;48.090;16.212;2023-12-20T05:16:50;97405.19;;;5.95;69.15
15674;BME280;7937;48.090;16.212;2023-12-20T05:19:53;97378.91;;;5.76;72.17
15674;BME280;7937;48.090;16.212;2023-12-20T05:22:55;97401.25;;;6.41;73.18
15674;BME280;7937;48.090;16.212;2023-12-20T05:25:58;97395.56;;;6.56;72.82
15674;BME280;7937;48.090;16.212;2023-12-20T05:29:02;97407.75;;;7.06;69.77
15674;BME280;7937;48.090;16.212;2023-12-20T05:32:05;97416.03;;;7.09;69.10
15674;BME280;7937;48.090;16.212;2023-12-20T05:35:07;97414.09;;;7.16;67.95
15674;BME280;7937;48.090;16.212;2023-12-20T05:38:10;97399.66;;;7.01;68.96
15674;BME280;7937;48.090;16.212;2023-12-20T05:41:13;97428.69;;;7.07;66.76
15674;BME280;7937;48.090;16.212;2023-12-20T05:44:16;97385.19;;;7.15;65.10
15674;BME280;7937;48.090;16.212;2023-12-20T05:47:18;97396.72;;;7.20;64.72
15674;BME280;7937;48.090;16.212;2023-12-20T05:50:21;97406.59;;;7.13;65.55
15674;BME280;7937;48.090;16.212;2023-12-20T05:53:24;97407.59;;;7.01;66.21
15674;BME280;7937;48.090;16.212;2023-12-20T05:56:26;97411.69;;;7.15;64.78
15674;BME280;7937;48.090;16.212;2023-12-20T05:59:29;97405.34;;;7.16;64.01
15674;BME280;7937;48.090;16.212;2023-12-20T06:02:31;97410.16;;;7.19;64.35
15674;BME280;7937;48.090;16.212;2023-12-20T06:05:34;97403.50;;;7.16;64.26
15674;BME280;7937;48.090;16.212;2023-12-20T06:08:38;97415.72;;;7.17;63.64
15674;BME280;7937;48.090;16.212;2023-12-20T06:11:41;97415.22;;;7.09;64.33
15674;BME280;7937;48.090;16.212;2023-12-20T06:14:43;97405.00;;;7.24;62.58
15674;BME280;7937;48.090;16.212;2023-12-20T06:17:45;97409.25;;;7.13;62.70
15674;BME280;7937;48.090;16.212;2023-12-20T06:20:49;97417.69;;;7.34;61.49
15674;BME280;7937;48.090;16.212;2023-12-20T06:23:51;97400.53;;;6.94;59.72
15674;BME280;7937;48.090;16.212;2023-12-20T06:26:54;97438.34;;;7.02;60.59
15674;BME280;7937;48.090;16.212;2023-12-20T06:29:57;97444.47;;;6.84;61.96
15674;BME280;7937;48.090;16.212;2023-12-20T06:32:59;97440.84;;;6.66;63.05
15674;BME280;7937;48.090;16.212;2023-12-20T06:36:01;97449.78;;;6.84;63.63
15674;BME280;7937;48.090;16.212;2023-12-20T06:39:04;97445.13;;;6.97;62.83
15674;BME280;7937;48.090;16.212;2023-12-20T06:42:06;97437.94;;;6.86;63.21
15674;BME280;7937;48.090;16.212;2023-12-20T06:45:09;97455.41;;;6.76;64.67
15674;BME280;7937;48.090;16.212;2023-12-20T06:48:11;97462.66;;;6.80;64.64
15674;BME280;7937;48.090;16.212;2023-12-20T06:51:16;97453.44;;;7.01;65.22
15674;BME280;7937;48.090;16.212;2023-12-20T06:54:18;97448.47;;;6.75;66.41
15674;BME280;7937;48.090;16.212;2023-12-20T06:57:21;97444.16;;;6.62;68.72
15674;BME280;7937;48.090;16.212;2023-12-20T07:00:23;97434.47;;;6.56;68.48
15674;BME280;7937;48.090;16.212;2023-12-20T07:03:25;97430.03;;;6.50;70.00
15674;BME280;7937;48.090;16.212;2023-12-20T07:06:27;97448.69;;;6.55;71.18
15674;BME280;7937;48.090;16.212;2023-12-20T07:09:29;97425.78;;;6.49;69.40
15674;BME280;7937;48.090;16.212;2023-12-20T07:12:31;97411.69;;;6.85;68.26
15674;BME280;7937;48.090;16.212;2023-12-20T07:15:33;97434.69;;;6.84;69.07
15674;BME280;7937;48.090;16.212;2023-12-20T07:18:35;97427.00;;;6.64;72.14
15674;BME280;7937;48.090;16.212;2023-12-20T07:21:37;97434.00;;;6.59;71.88
15674;BME280;7937;48.090;16.212;2023-12-20T07:24:40;97434.56;;;6.79;70.73
15674;BME280;7937;48.090;16.212;2023-12-20T07:27:42;97424.63;;;6.75;70.89
15674;BME280;7937;48.090;16.212;2023-12-20T07:30:46;97439.56;;;6.87;70.54
15674;BME280;7937;48.090;16.212;2023-12-20T07:33:48;97438.88;;;6.92;69.65
15674;BME280;7937;48.090;16.212;2023-12-20T07:36:51;97459.31;;;7.03;68.79
15674;BME280;7937;48.090;16.212;2023-12-20T07:39:53;97445.41;;;6.89;69.55
15674;BME280;7937;48.090;16.212;2023-12-20T07:42:55;97444.41;;;6.90;69.30
15674;BME280;7937;48.090;16.212;2023-12-20T07:46:01;97456.47;;;6.86;69.89
15674;BME280;7937;48.090;16.212;2023-12-20T07:49:05;97456.91;;;6.83;71.20
15674;BME280;7937;48.090;16.212;2023-12-20T07:52:07;97433.03;;;6.71;71.33
15674;BME280;7937;48.090;16.212;2023-12-20T07:55:10;97447.59;;;6.81;70.11
15674;BME280;7937;48.090;16.212;2023-12-20T07:58:12;97458.59;;;6.96;69.74
15674;BME280;7937;48.090;16.212;2023-12-20T08:01:16;97457.31;;;6.98;69.42
15674;BME280;7937;48.090;16.212;2023-12-20T08:04:20;97450.56;;;7.03;70.46
15674;BME280;7937;48.090;16.212;2023-12-20T08:07:22;97470.13;;;7.02;70.00
15674;BME280;7937;48.090;16.212;2023-12-20T08:10:26;97454.53;;;6.93;71.13
15674;BME280;7937;48.090;16.212;2023-12-20T08:13:29;97445.25;;;7.03;70.52
15674;BME280;7937;48.090;16.212;2023-12-20T08:16:31;97441.69;;;7.09;71.60
15674;BME280;7937;48.090;16.212;2023-12-20T08:19:33;97441.22;;;7.00;71.13
15674;BME280;7937;48.090;16.212;2023-12-20T08:22:36;97480.16;;;7.00;72.21
15674;BME280;7937;48.090;16.212;2023-12-20T08:25:38;97464.44;;;7.16;70.87
15674;BME280;7937;48.090;16.212;2023-12-20T08:28:40;97444.81;;;7.06;71.06
15674;BME280;7937;48.090;16.212;2023-12-20T08:31:42;97469.31;;;7.01;70.79
15674;BME280;7937;48.090;16.212;2023-12-20T08:34:44;97475.16;;;6.91;71.69
15674;BME280;7937;48.090;16.212;2023-12-20T08:37:46;97463.47;;;6.81;71.67
15674;BME280;7937;48.090;16.212;2023-12-20T08:40:49;97484.44;;;6.82;73.40
15674;BME280;7937;48.090;16.212;2023-12-20T08:43:51;97486.72;;;7.09;72.12
15674;BME280;7937;48.090;16.212;2023-12-20T08:46:53;97488.91;;;7.00;71.48
15674;BME280;7937;48.090;16.212;2023-12-20T08:49:59;97482.28;;;6.91;72.79
15674;BME280;7937;48.090;16.212;2023-12-20T08:53:02;97511.94;;;6.81;72.26
15674;BME280;7937;48.090;16.212;2023-12-20T08:56:04;97501.91;;;6.83;72.83
15674;BME280;7937;48.090;16.212;2023-12-20T08:59:06;97498.38;;;6.89;71.72
15674;BME280;7937;48.090;16.212;2023-12-20T09:02:09;97507.34;;;6.88;72.06
15674;BME280;7937;48.090;16.212;2023-12-20T09:05:11;97502.97;;;6.82;73.27
15674;BME280;7937;48.090;16.212;2023-12-20T09:08:13;97525.84;;;6.77;74.17
15674;BME280;7937;48.090;16.212;2023-12-20T09:11:15;97527.25;;;6.61;74.58
15674;BME280;7937;48.090;16.212;2023-12-20T09:14:17;97522.28;;;6.64;76.04
15674;BME280;7937;48.090;16.212;2023-12-20T09:17:19;97527.81;;;6.63;76.46
15674;BME280;7937;48.090;16.212;2023-12-20T09:20:24;97538.25;;;6.58;77.15
15674;BME280;7937;48.090;16.212;2023-12-20T09:23:26;97526.84;;;6.39;79.64
15674;BME280;7937;48.090;16.212;2023-12-20T09:26:28;97521.41;;;6.52;78.99
15674;BME280;7937;48.090;16.212;2023-12-20T09:29:31;97536.84;;;6.37;80.04
15674;BME280;7937;48.090;16.212;2023-12-20T09:32:33;97529.44;;;6.20;81.96
15674;BME280;7937;48.090;16.212;2023-12-20T09:35:35;97532.28;;;6.26;82.17
15674;BME280;7937;48.090;16.212;2023-12-20T09:38:39;97541.81;;;6.27;82.50
15674;BME280;7937;48.090;16.212;2023-12-20T09:41:45;97521.97;;;6.17;83.77
15674;BME280;7937;48.090;16.212;2023-12-20T09:44:51;97522.69;;;6.06;84.60
15674;BME280;7937;48.090;16.212;2023-12-20T09:47:54;97549.16;;;6.25;83.09
15674;BME280;7937;48.090;16.212;2023-12-20T09:50:59;97521.69;;;6.01;84.83
15674;BME280;7937;48.090;16.212;2023-12-20T09:54:03;97548.22;;;5.87;87.42
15674;BME280;7937;48.090;16.212;2023-12-20T09:57:05;97528.66;;;5.95;85.61
15674;BME280;7937;48.090;16.212;2023-12-20T10:00:08;97527.09;;;5.81;86.83
15674;BME280;7937;48.090;16.212;2023-12-20T10:03:14;97499.97;;;5.67;88.20
15674;BME280;7937;48.090;16.212;2023-12-20T10:06:17;97508.22;;;5.77;88.04
15674;BME280;7937;48.090;16.212;2023-12-20T10:09:19;97520.34;;;5.85;88.82
15674;BME280;7937;48.090;16.212;2023-12-20T10:12:21;97490.84;;;5.63;91.30
15674;BME280;7937;48.090;16.212;2023-12-20T10:15:24;97490.34;;;5.48;92.06
15674;BME280;7937;48.090;16.212;2023-12-20T10:18:29;97506.38;;;5.53;90.71
15674;BME280;7937;48.090;16.212;2023-12-20T10:21:41;97474.50;;;5.48;92.80
15674;BME280;7937;48.090;16.212;2023-12-20T10:24:43;97455.31;;;5.59;92.50
15674;BME280;7937;48.090;16.212;2023-12-20T10:27:49;97482.59;;;5.53;92.13
15674;BME280;7937;48.090;16.212;2023-12-20T10:30:52;97468.13;;;5.55;91.32
15674;BME280;7937;48.090;16.212;2023-12-20T10:33:58;97481.16;;;5.57;91.30
15674;BME280;7937;48.090;16.212;2023-12-20T10:37:01;97482.78;;;5.83;89.71
15674;BME280;7937;48.090;16.212;2023-12-20T10:40:04;97470.25;;;5.72;90.14
15674;BME280;7937;48.090;16.212;2023-12-20T10:43:08;97461.25;;;5.79;89.86
15674;BME280;7937;48.090;16.212;2023-12-20T10:46:11;97463.06;;;5.79;89.47
15674;BME280;7937;48.090;16.212;2023-12-20T10:49:14;97473.50;;;5.74;91.24
15674;BME280;7937;48.090;16.212;2023-12-20T10:52:17;97455.88;;;5.86;88.34
15674;BME280;7937;48.090;16.212;2023-12-20T10:55:20;97454.03;;;5.93;89.24
15674;BME280;7937;48.090;16.212;2023-12-20T10:58:23;97456.03;;;5.73;91.35
15674;BME280;7937;48.090;16.212;2023-12-20T11:01:27;97441.50;;;6.07;86.88
15674;BME280;7937;48.090;16.212;2023-12-20T11:04:44;97417.91;;;5.80;89.20
15674;BME280;7937;48.090;16.212;2023-12-20T11:08:00;97422.13;;;5.88;88.99
15674;BME280;7937;48.090;16.212;2023-12-20T11:14:31;97427.81;;;6.10;87.89
15674;BME280;7937;48.090;16.212;2023-12-20T11:17:39;97411.91;;;6.16;86.54
15674;BME280;7937;48.090;16.212;2023-12-20T11:20:41;97406.03;;;5.96;87.37
15674;BME280;7937;48.090;16.212;2023-12-20T11:23:44;97440.63;;;6.13;87.51
15674;BME280;7937;48.090;16.212;2023-12-20T11:26:49;97430.31;;;6.05;87.64
15674;BME280;7937;48.090;16.212;2023-12-20T11:29:54;97413.00;;;6.09;87.54
15674;BME280;7937;48.090;16.212;2023-12-20T11:32:56;97402.91;;;5.99;88.41
15674;BME280;7937;48.090;16.212;2023-12-20T11:35:59;97396.19;;;6.03;86.57
15674;BME280;7937;48.090;16.212;2023-12-20T11:39:04;97425.84;;;6.24;84.90
15674;BME280;7937;48.090;16.212;2023-12-20T11:42:12;97422.84;;;6.38;84.55
15674;BME280;7937;48.090;16.212;2023-12-20T11:45:18;97420.00;;;6.22;85.45
15674;BME280;7937;48.090;16.212;2023-12-20T11:48:24;97411.59;;;6.43;83.31
15674;BME280;7937;48.090;16.212;2023-12-20T11:51:27;97429.53;;;6.41;83.47
15674;BME280;7937;48.090;16.212;2023-12-20T11:54:30;97417.03;;;6.30;84.49
15674;BME280;7937;48.090;16.212;2023-12-20T11:57:33;97426.44;;;6.44;83.24
15674;BME280;7937;48.090;16.212;2023-12-20T12:00:35;97426.63;;;6.31;85.01
15674;BME280;7937;48.090;16.212;2023-12-20T12:03:38;97401.16;;;6.48;82.90
15674;BME280;7937;48.090;16.212;2023-12-20T12:06:40;97398.78;;;6.58;82.80
15674;BME280;7937;48.090;16.212;2023-12-20T12:09:43;97421.91;;;6.51;82.40
15674;BME280;7937;48.090;16.212;2023-12-20T12:12:45;97407.53;;;6.59;82.33
15674;BME280;7937;48.090;16.212;2023-12-20T12:15:48;97420.25;;;6.50;83.55
15674;BME280;7937;48.090;16.212;2023-12-20T12:18:56;97404.09;;;6.58;82.79
15674;BME280;7937;48.090;16.212;2023-12-20T12:22:10;97396.41;;;6.68;83.34
15674;BME280;7937;48.090;16.212;2023-12-20T12:25:17;97411.50;;;6.50;84.47
15674;BME280;7937;48.090;16.212;2023-12-20T12:28:19;97399.91;;;6.51;83.70
15674;BME280;7937;48.090;16.212;2023-12-20T12:31:21;97382.06;;;6.46;84.03
15674;BME280;7937;48.090;16.212;2023-12-20T12:34:24;97371.28;;;6.59;82.67
15674;BME280;7937;48.090;16.212;2023-12-20T12:37:29;97378.16;;;6.49;83.43
15674;BME280;7937;48.090;16.212;2023-12-20T12:40:34;97371.88;;;6.61;83.94
15674;BME280;7937;48.090;16.212;2023-12-20T12:43:38;97370.69;;;6.45;86.36
15674;BME280;7937;48.090;16.212;2023-12-20T12:46:40;97398.38;;;6.43;86.55
15674;BME280;7937;48.090;16.212;2023-12-20T12:49:43;97377.72;;;6.52;84.61
15674;BME280;7937;48.090;16.212;2023-12-20T12:52:45;97389.06;;;6.40;85.97
15674;BME280;7937;48.090;16.212;2023-12-20T12:55:47;97380.66;;;6.43;85.56
15674;BME280;7937;48.090;16.212;2023-12-20T12:58:49;97369.84;;;6.45;84.98
15674;BME280;7937;48.090;16.212;2023-12-20T13:01:52;97367.66;;;6.24;86.00
15674;BME280;7937;48.090;16.212;2023-12-20T13:04:55;97352.47;;;6.01;86.91
15674;BME280;7937;48.090;16.212;2023-12-20T13:07:57;97372.44;;;6.15;87.22
15674;BME280;7937;48.090;16.212;2023-12-20T13:11:00;97363.78;;;6.08;87.94
15674;BME280;7937;48.090;16.212;2023-12-20T13:14:05;97372.66;;;6.13;87.52
15674;BME280;7937;48.090;16.212;2023-12-20T13:17:09;97369.88;;;6.08;87.09
15674;BME280;7937;48.090;16.212;2023-12-20T13:20:11;97369.59;;;6.16;86.54
15674;BME280;7937;48.090;16.212;2023-12-20T13:23:14;97359.59;;;6.18;86.64
15674;BME280;7937;48.090;16.212;2023-12-20T13:26:16;97365.81;;;6.06;87.18
15674;BME280;7937;48.090;16.212;2023-12-20T13:29:19;97376.94;;;5.96;88.05
15674;BME280;7937;48.090;16.212;2023-12-20T13:32:21;97373.47;;;5.95;87.83
15674;BME280;7937;48.090;16.212;2023-12-20T13:35:23;97382.44;;;5.94;87.63
15674;BME280;7937;48.090;16.212;2023-12-20T13:38:26;97366.72;;;6.00;87.65
15674;BME280;7937;48.090;16.212;2023-12-20T13:41:28;97370.75;;;6.02;86.73
15674;BME280;7937;48.090;16.212;2023-12-20T13:44:30;97367.41;;;5.88;88.15
15674;BME280;7937;48.090;16.212;2023-12-20T13:47:33;97376.34;;;5.94;88.24
15674;BME280;7937;48.090;16.212;2023-12-20T13:50:35;97392.56;;;5.98;87.36
15674;BME280;7937;48.090;16.212;2023-12-20T13:53:38;97398.09;;;5.96;87.38
15674;BME280;7937;48.090;16.212;2023-12-20T13:56:40;97394.03;;;5.93;87.36
15674;BME280;7937;48.090;16.212;2023-12-20T13:59:58;97415.56;;;5.90;88.54
15674;BME280;7937;48.090;16.212;2023-12-20T14:03:00;97399.84;;;6.02;87.00
15674;BME280;7937;48.090;16.212;2023-12-20T14:06:04;97397.06;;;5.90;87.54
15674;BME280;7937;48.090;16.212;2023-12-20T14:09:06;97390.84;;;5.85;87.71
15674;BME280;7937;48.090;16.212;2023-12-20T14:12:08;97385.00;;;5.58;88.05
15674;BME280;7937;48.090;16.212;2023-12-20T14:15:11;97422.03;;;6.01;86.24
15674;BME280;7937;48.090;16.212;2023-12-20T14:18:15;97409.25;;;5.98;86.73
15674;BME280;7937;48.090;16.212;2023-12-20T14:21:17;97409.94;;;5.87;88.11
15674;BME280;7937;48.090;16.212;2023-12-20T14:24:21;97427.53;;;5.75;89.18
15674;BME280;7937;48.090;16.212;2023-12-20T14:27:24;97426.72;;;5.74;89.01
15674;BME280;7937;48.090;16.212;2023-12-20T14:30:29;97427.59;;;5.68;90.09
15674;BME280;7937;48.090;16.212;2023-12-20T14:33:32;97396.41;;;5.77;89.00
15674;BME280;7937;48.090;16.212;2023-12-20T14:36:34;97410.47;;;5.70;90.59
15674;BME280;7937;48.090;16.212;2023-12-20T14:39:37;97414.31;;;5.75;89.67
15674;BME280;7937;48.090;16.212;2023-12-20T14:42:46;97409.13;;;5.86;88.99
15674;BME280;7937;48.090;16.212;2023-12-20T14:45:49;97422.84;;;6.02;87.86
15674;BME280;7937;48.090;16.212;2023-12-20T14:48:52;97426.56;;;5.94;87.87
15674;BME280;7937;48.090;16.212;2023-12-20T14:51:55;97427.63;;;5.86;88.70
15674;BME280;7937;48.090;16.212;2023-12-20T14:54:57;97402.44;;;5.84;88.32
15674;BME280;7937;48.090;16.212;2023-12-20T14:57:59;97418.06;;;5.85;88.74
15674;BME280;7937;48.090;16.212;2023-12-20T15:01:02;97421.00;;;6.02;87.27
15674;BME280;7937;48.090;16.212;2023-12-20T15:04:05;97427.38;;;5.94;87.78
15674;BME280;7937;48.090;16.212;2023-12-20T15:07:07;97409.09;;;5.93;88.31
15674;BME280;7937;48.090;16.212;2023-12-20T15:10:09;97430.00;;;5.94;87.48
15674;BME280;7937;48.090;16.212;2023-12-20T15:13:11;97436.81;;;5.84;88.54
15674;BME280;7937;48.090;16.212;2023-12-20T15:16:14;97443.69;;;5.85;88.88
15674;BME280;7937;48.090;16.212;2023-12-20T15:19:16;97441.13;;;6.03;87.62
15674;BME280;7937;48.090;16.212;2023-12-20T15:22:19;97437.69;;;6.03;87.44
15674;BME280;7937;48.090;16.212;2023-12-20T15:25:21;97434.97;;;5.84;88.96
15674;BME280;7937;48.090;16.212;2023-12-20T15:28:24;97444.50;;;5.85;88.03
15674;BME280;7937;48.090;16.212;2023-12-20T15:31:27;97460.59;;;5.84;88.04
15674;BME280;7937;48.090;16.212;2023-12-20T15:34:29;97418.22;;;5.47;88.13
15674;BME280;7937;48.090;16.212;2023-12-20T15:37:31;97451.31;;;6.00;85.47
15674;BME280;7937;48.090;16.212;2023-12-20T15:40:34;97455.06;;;5.92;85.01
15674;BME280;7937;48.090;16.212;2023-12-20T15:43:37;97449.94;;;5.90;85.26
15674;BME280;7937;48.090;16.212;2023-12-20T15:46:39;97457.72;;;5.92;85.32
15674;BME280;7937;48.090;16.212;2023-12-20T15:49:41;97457.09;;;5.65;87.22
15674;BME280;7937;48.090;16.212;2023-12-20T15:52:44;97465.06;;;5.58;87.69
15674;BME280;7937;48.090;16.212;2023-12-20T15:55:46;97478.53;;;5.50;88.68
15674;BME280;7937;48.090;16.212;2023-12-20T15:58:49;97480.78;;;5.78;86.58
15674;BME280;7937;48.090;16.212;2023-12-20T16:01:54;97491.59;;;5.70;87.55
15674;BME280;7937;48.090;16.212;2023-12-20T16:04:57;97493.66;;;5.68;88.38
15674;BME280;7937;48.090;16.212;2023-12-20T16:08:00;97482.22;;;5.74;87.65
15674;BME280;7937;48.090;16.212;2023-12-20T16:11:02;97498.09;;;5.74;87.58
15674;BME280;7937;48.090;16.212;2023-12-20T16:14:05;97485.75;;;5.93;85.75
15674;BME280;7937;48.090;16.212;2023-12-20T16:17:08;97485.25;;;5.78;87.08
15674;BME280;7937;48.090;16.212;2023-12-20T16:20:10;97488.31;;;5.75;86.59
15674;BME280;7937;48.090;16.212;2023-12-20T16:23:13;97492.69;;;5.62;86.82
15674;BME280;7937;48.090;16.212;2023-12-20T16:26:16;97502.13;;;5.52;87.55